createdAt,value
2018-04-12T00:00:20.014Z,10.84
2018-04-12T00:02:47.600Z,10.72
2018-04-12T00:05:15.229Z,10.56
2018-04-12T00:07:42.820Z,10.52
2018-04-12T00:10:10.453Z,10.31
2018-04-12T00:12:38.123Z,10.20
2018-04-12T00:15:05.749Z,10.40
2018-04-12T00:17:33.378Z,10.29
2018-04-12T00:20:01.047Z,10.40
2018-04-12T00:22:28.706Z,10.29
2018-04-12T00:24:56.333Z,10.20
2018-04-12T00:27:24.007Z,10.15
2018-04-12T00:29:51.663Z,10.06
2018-04-12T00:32:19.344Z,10.14
2018-04-12T00:34:47.021Z,10.49
2018-04-12T00:37:14.673Z,10.56
2018-04-12T00:39:42.288Z,10.41
2018-04-12T00:42:09.954Z,10.30
2018-04-12T00:44:37.569Z,10.20
2018-04-12T00:47:05.168Z,10.16
2018-04-12T00:49:32.825Z,10.03
2018-04-12T00:52:00.426Z,9.95
2018-04-12T00:54:28.106Z,10.14
2018-04-12T00:56:55.790Z,10.30
2018-04-12T00:59:23.395Z,10.13
2018-04-12T01:01:51.022Z,10.10
2018-04-12T01:04:18.692Z,9.98
2018-04-12T01:06:46.355Z,9.82
2018-04-12T01:09:13.998Z,9.67
2018-04-12T01:11:41.654Z,9.74
2018-04-12T01:14:09.405Z,9.77
2018-04-12T01:16:37.002Z,9.63
2018-04-12T01:19:04.681Z,9.83
2018-04-12T01:21:32.261Z,9.76
2018-04-12T01:23:59.862Z,9.69
2018-04-12T01:26:27.487Z,9.58
2018-04-12T01:28:55.075Z,9.47
2018-04-12T01:31:22.665Z,9.47
2018-04-12T01:33:50.297Z,9.38
2018-04-12T01:36:17.889Z,9.29
2018-04-12T01:38:45.489Z,9.33
2018-04-12T01:41:13.125Z,9.28
2018-04-12T01:43:40.715Z,9.41
2018-04-12T01:46:08.319Z,9.49
2018-04-12T01:48:35.965Z,9.53
2018-04-12T01:51:03.562Z,9.39
2018-04-12T01:53:31.177Z,9.32
2018-04-12T01:55:58.810Z,9.24
2018-04-12T01:58:26.444Z,9.39
2018-04-12T02:00:54.041Z,9.42
2018-04-12T02:03:21.668Z,9.44
2018-04-12T02:05:49.280Z,9.34
2018-04-12T02:08:16.872Z,9.22
2018-04-12T02:10:44.524Z,9.08
2018-04-12T02:13:12.169Z,9.04
2018-04-12T02:15:39.761Z,9.06
2018-04-12T02:18:07.414Z,9.00
2018-04-12T02:20:35.015Z,9.04
2018-04-12T02:23:02.614Z,9.18
2018-04-12T02:25:30.253Z,9.18
2018-04-12T02:27:57.833Z,9.09
2018-04-12T02:30:25.462Z,9.30
2018-04-12T02:32:53.094Z,9.72
2018-04-12T02:35:20.693Z,9.67
2018-04-12T02:37:48.329Z,9.44
2018-04-12T02:40:15.949Z,9.42
2018-04-12T02:42:43.542Z,9.32
2018-04-12T02:45:11.141Z,9.22
2018-04-12T02:47:38.744Z,9.11
2018-04-12T02:50:06.345Z,9.03
2018-04-12T02:52:33.947Z,9.20
2018-04-12T02:55:01.584Z,9.24
2018-04-12T02:57:29.191Z,9.07
2018-04-12T02:59:56.778Z,9.05
2018-04-12T03:02:24.412Z,8.91
2018-04-12T03:04:52.023Z,8.77
2018-04-12T03:07:19.623Z,8.74
2018-04-12T03:09:47.272Z,8.82
2018-04-12T03:12:14.864Z,8.91
2018-04-12T03:14:42.456Z,8.78
2018-04-12T03:17:10.080Z,8.72
2018-04-12T03:19:37.665Z,8.93
2018-04-12T03:22:05.269Z,9.17
2018-04-12T03:24:32.984Z,9.12
2018-04-12T03:27:00.540Z,8.90
2018-04-12T03:29:28.146Z,8.90
2018-04-12T03:31:55.776Z,9.06
2018-04-12T03:34:23.381Z,9.11
2018-04-12T03:36:50.978Z,8.95
2018-04-12T03:39:18.603Z,9.09
2018-04-12T03:41:46.201Z,9.07
2018-04-12T03:44:13.806Z,8.99
2018-04-12T03:46:41.430Z,8.91
2018-04-12T03:49:09.058Z,8.76
2018-04-12T03:51:36.700Z,8.72
2018-04-12T03:54:04.377Z,8.74
2018-04-12T03:56:31.976Z,8.94
2018-04-12T03:58:59.580Z,9.05
2018-04-12T04:01:27.213Z,9.54
2018-04-12T04:03:54.804Z,9.99
2018-04-12T04:06:22.398Z,10.41
2018-04-12T04:08:50.032Z,11.04
2018-04-12T04:11:17.642Z,11.60
2018-04-12T04:13:45.245Z,12.22
2018-04-12T04:16:24.661Z,12.83
2018-04-12T04:19:03.887Z,13.34
2018-04-12T04:21:32.620Z,13.93
2018-04-12T04:24:00.212Z,14.43
2018-04-12T04:26:27.818Z,14.83
2018-04-12T04:28:55.575Z,15.30
2018-04-12T04:31:23.936Z,15.82
2018-04-12T04:33:51.528Z,16.39
2018-04-12T04:36:19.153Z,16.96
2018-04-12T04:38:46.745Z,17.60
2018-04-12T04:41:14.334Z,18.00
2018-04-12T04:43:42.046Z,18.61
2018-04-12T04:46:09.662Z,18.85
2018-04-12T04:48:37.284Z,19.44
2018-04-12T04:51:04.925Z,19.85
2018-04-12T04:53:32.517Z,20.31
2018-04-12T04:56:00.114Z,20.45
2018-04-12T04:58:27.751Z,20.33
2018-04-12T05:00:55.386Z,20.86
2018-04-12T05:03:23.027Z,21.28
2018-04-12T05:05:50.726Z,22.10
2018-04-12T05:08:18.352Z,22.09
2018-04-12T05:10:45.973Z,23.03
2018-04-12T05:13:13.593Z,23.20
2018-04-12T05:15:41.198Z,23.69
2018-04-12T05:18:25.560Z,23.93
2018-04-12T05:20:53.152Z,24.06
2018-04-12T05:23:20.801Z,24.56
2018-04-12T05:25:48.491Z,24.68
2018-04-12T05:28:16.071Z,25.15
2018-04-12T05:30:43.681Z,25.70
2018-04-12T05:33:11.313Z,25.85
2018-04-12T05:35:38.911Z,26.15
2018-04-12T05:38:06.510Z,26.41
2018-04-12T05:40:34.148Z,26.14
2018-04-12T05:43:01.762Z,25.05
2018-04-12T05:45:29.362Z,25.86
2018-04-12T05:47:57.001Z,26.79
2018-04-12T05:50:24.603Z,27.10
2018-04-12T05:52:52.226Z,26.83
2018-04-12T05:55:19.859Z,27.46
2018-04-12T05:57:47.460Z,26.93
2018-04-12T06:00:15.060Z,28.00
2018-04-12T06:02:42.689Z,28.39
2018-04-12T06:05:10.293Z,28.75
2018-04-12T06:07:37.905Z,28.96
2018-04-12T06:10:05.545Z,28.96
2018-04-12T06:12:33.140Z,29.72
2018-04-12T06:15:00.725Z,29.66
2018-04-12T06:17:28.379Z,29.06
2018-04-12T06:19:55.978Z,29.55
2018-04-12T06:22:23.585Z,29.98
2018-04-12T06:24:51.220Z,30.66
2018-04-12T06:27:18.817Z,31.39
2018-04-12T06:29:46.421Z,30.49
2018-04-12T06:32:14.058Z,29.80
2018-04-12T06:34:41.657Z,30.18
2018-04-12T06:37:09.246Z,30.61
2018-04-12T06:39:36.873Z,31.83
2018-04-12T06:42:04.485Z,32.62
2018-04-12T06:44:32.099Z,32.09
2018-04-12T06:46:59.757Z,32.31
2018-04-12T06:49:27.349Z,32.71
2018-04-12T06:51:54.946Z,33.06
2018-04-12T06:54:22.589Z,33.13
2018-04-12T06:56:50.183Z,33.19
2018-04-12T06:59:17.794Z,33.83
2018-04-12T07:01:45.433Z,33.86
2018-04-12T07:04:13.030Z,33.46
2018-04-12T07:06:40.624Z,32.76
2018-04-12T07:09:08.245Z,32.88
2018-04-12T07:11:35.874Z,33.03
2018-04-12T07:14:03.473Z,33.65
2018-04-12T07:16:31.102Z,34.33
2018-04-12T07:18:58.700Z,33.85
2018-04-12T07:21:26.357Z,33.45
2018-04-12T07:23:53.990Z,33.38
2018-04-12T07:26:21.591Z,33.75
2018-04-12T07:28:49.191Z,34.49
2018-04-12T07:31:16.826Z,34.64
2018-04-12T07:33:44.428Z,34.65
2018-04-12T07:36:12.025Z,34.83
2018-04-12T07:38:39.684Z,34.65
2018-04-12T07:41:07.336Z,33.69
2018-04-12T07:43:34.968Z,33.97
2018-04-12T07:46:02.597Z,35.10
2018-04-12T07:48:30.189Z,35.46
2018-04-12T07:50:57.781Z,35.11
2018-04-12T07:53:25.436Z,34.12
2018-04-12T07:55:53.055Z,33.12
2018-04-12T07:58:20.644Z,33.49
2018-04-12T08:00:48.274Z,34.33
2018-04-12T08:03:15.860Z,34.43
2018-04-12T08:05:43.440Z,35.61
2018-04-12T08:08:11.067Z,34.33
2018-04-12T08:10:38.659Z,34.33
2018-04-12T08:13:06.253Z,34.75
2018-04-12T08:15:33.910Z,35.02
2018-04-12T08:18:01.529Z,34.89
2018-04-12T08:20:29.223Z,34.52
2018-04-12T08:22:56.867Z,34.75
2018-04-12T08:25:24.467Z,35.07
2018-04-12T08:27:52.060Z,34.73
2018-04-12T08:30:19.688Z,33.43
2018-04-12T08:32:47.288Z,34.66
2018-04-12T08:35:14.881Z,34.94
2018-04-12T08:37:42.509Z,34.50
2018-04-12T08:40:10.097Z,34.25
2018-04-12T08:42:37.711Z,34.22
2018-04-12T08:45:05.356Z,35.24
2018-04-12T08:47:32.952Z,34.16
2018-04-12T08:50:00.636Z,35.60
2018-04-12T08:52:28.265Z,33.88
2018-04-12T08:54:55.862Z,33.58
2018-04-12T08:57:23.462Z,33.01
2018-04-12T08:59:51.089Z,34.02
2018-04-12T09:02:18.678Z,35.01
2018-04-12T09:04:46.303Z,35.38
2018-04-12T09:07:13.940Z,35.79
2018-04-12T09:09:41.521Z,35.83
2018-04-12T09:12:09.104Z,36.44
2018-04-12T09:14:36.732Z,35.48
2018-04-12T09:17:04.342Z,35.53
2018-04-12T09:19:31.931Z,35.71
2018-04-12T09:21:59.601Z,36.39
2018-04-12T09:24:27.193Z,36.69
2018-04-12T09:26:54.785Z,37.13
2018-04-12T09:29:22.483Z,36.09
2018-04-12T09:31:50.072Z,35.57
2018-04-12T09:34:17.668Z,35.56
2018-04-12T09:36:45.354Z,36.79
2018-04-12T09:39:12.945Z,37.20
2018-04-12T09:41:40.549Z,37.95
2018-04-12T09:44:08.161Z,36.13
2018-04-12T09:46:35.760Z,36.31
2018-04-12T09:49:03.413Z,37.46
2018-04-12T09:51:31.058Z,37.71
2018-04-12T09:53:58.645Z,38.00
2018-04-12T09:56:26.237Z,37.34
2018-04-12T09:58:53.952Z,36.90
2018-04-12T10:01:21.592Z,35.92
2018-04-12T10:03:49.246Z,34.44
2018-04-12T10:06:22.846Z,34.74
2018-04-12T10:08:55.903Z,34.85
2018-04-12T10:11:23.495Z,34.41
2018-04-12T10:13:51.118Z,34.85
2018-04-12T10:16:18.716Z,35.37
2018-04-12T10:18:46.340Z,36.04
2018-04-12T10:21:13.910Z,36.32
2018-04-12T10:23:41.473Z,37.33
2018-04-12T10:26:09.117Z,35.40
2018-04-12T10:28:36.689Z,36.34
2018-04-12T10:31:05.166Z,36.73
2018-04-12T10:33:32.863Z,35.64
2018-04-12T10:36:00.449Z,35.56
2018-04-12T10:38:28.699Z,35.31
2018-04-12T10:40:56.308Z,36.03
2018-04-12T10:43:23.972Z,36.52
2018-04-12T10:45:51.593Z,37.33
2018-04-12T10:48:19.227Z,37.34
2018-04-12T10:50:46.815Z,38.11
2018-04-12T10:53:14.396Z,38.27
2018-04-12T10:55:42.043Z,38.58
2018-04-12T10:58:09.650Z,37.15
2018-04-12T11:00:37.251Z,37.46
2018-04-12T11:03:04.861Z,37.06
2018-04-12T11:05:32.448Z,36.41
2018-04-12T11:08:00.030Z,36.74
2018-04-12T11:10:27.654Z,36.84
2018-04-12T11:12:55.365Z,36.34
2018-04-12T11:15:22.952Z,35.31
2018-04-12T11:17:50.580Z,35.14
2018-04-12T11:20:18.305Z,34.99
2018-04-12T11:22:45.887Z,35.38
2018-04-12T11:25:13.569Z,36.89
2018-04-12T11:27:41.168Z,35.38
2018-04-12T11:30:08.757Z,35.25
2018-04-12T11:32:36.400Z,36.70
2018-04-12T11:35:04.015Z,37.09
2018-04-12T11:37:31.610Z,37.56
2018-04-12T11:39:59.300Z,37.19
2018-04-12T11:42:26.878Z,37.33
2018-04-12T11:44:54.472Z,36.58
2018-04-12T11:47:22.080Z,37.37
2018-04-12T11:49:49.868Z,37.81
2018-04-12T11:52:17.429Z,38.67
2018-04-12T11:54:45.065Z,38.16
2018-04-12T11:57:12.644Z,36.89
2018-04-12T11:59:40.264Z,35.87
2018-04-12T12:02:07.871Z,36.15
2018-04-12T12:04:35.457Z,35.99
2018-04-12T12:07:03.194Z,36.47
2018-04-12T12:09:30.810Z,36.95
2018-04-12T12:11:58.534Z,37.04
2018-04-12T12:14:26.121Z,36.63
2018-04-12T12:16:53.745Z,35.22
2018-04-12T12:19:21.531Z,36.13
2018-04-12T12:21:49.090Z,36.87
2018-04-12T12:24:16.690Z,38.20
2018-04-12T12:26:44.278Z,38.47
2018-04-12T12:29:11.844Z,38.09
2018-04-12T12:31:39.446Z,38.21
2018-04-12T12:34:07.016Z,37.34
2018-04-12T12:36:34.601Z,38.32
2018-04-12T12:39:02.215Z,37.32
2018-04-12T12:41:29.799Z,37.01
2018-04-12T12:43:57.375Z,37.77
2018-04-12T12:46:24.989Z,38.48
2018-04-12T12:48:52.583Z,36.91
2018-04-12T12:51:20.155Z,36.46
2018-04-12T12:53:47.767Z,35.93
2018-04-12T12:56:15.340Z,36.29
2018-04-12T12:58:42.914Z,35.32
2018-04-12T13:01:10.530Z,34.13
2018-04-12T13:03:38.107Z,34.84
2018-04-12T13:06:05.697Z,35.60
2018-04-12T13:08:33.310Z,35.31
2018-04-12T13:11:00.878Z,34.82
2018-04-12T13:13:28.502Z,34.84
2018-04-12T13:15:56.085Z,34.51
2018-04-12T13:18:23.669Z,33.62
2018-04-12T13:20:51.256Z,32.45
2018-04-12T13:23:18.907Z,31.77
2018-04-12T13:25:46.494Z,30.60
2018-04-12T13:28:14.128Z,30.45
2018-04-12T13:30:41.758Z,30.46
2018-04-12T13:33:09.399Z,30.42
2018-04-12T13:35:37.012Z,30.05
2018-04-12T13:38:04.638Z,29.18
2018-04-12T13:40:32.325Z,28.93
2018-04-12T13:42:59.927Z,29.02
2018-04-12T13:45:27.544Z,29.21
2018-04-12T13:47:55.143Z,28.91
2018-04-12T13:50:22.720Z,28.49
2018-04-12T13:52:50.340Z,28.70
2018-04-12T13:55:17.943Z,28.85
2018-04-12T13:57:45.558Z,28.79
2018-04-12T14:00:13.181Z,28.65
2018-04-12T14:02:40.770Z,28.47
2018-04-12T14:05:08.345Z,28.46
2018-04-12T14:07:36.034Z,28.24
2018-04-12T14:10:03.619Z,28.29
2018-04-12T14:12:31.184Z,28.25
2018-04-12T14:14:58.805Z,28.38
2018-04-12T14:17:26.403Z,28.44
2018-04-12T14:19:54.102Z,28.45
2018-04-12T14:22:21.750Z,28.39
2018-04-12T14:24:49.324Z,28.34
2018-04-12T14:27:16.905Z,28.24
2018-04-12T14:29:44.573Z,28.28
2018-04-12T14:32:12.163Z,28.29
2018-04-12T14:34:39.742Z,28.18
2018-04-12T14:37:07.369Z,28.10
2018-04-12T14:39:34.930Z,28.10
2018-04-12T14:42:02.523Z,28.13
2018-04-12T14:44:30.137Z,28.04
2018-04-12T14:46:57.736Z,28.02
2018-04-12T14:49:25.325Z,27.96
2018-04-12T14:51:52.960Z,27.86
2018-04-12T14:54:20.544Z,27.83
2018-04-12T14:56:48.117Z,27.84
2018-04-12T14:59:15.718Z,27.86
2018-04-12T15:01:43.296Z,27.80
2018-04-12T15:04:10.877Z,27.62
2018-04-12T15:06:38.584Z,27.66
2018-04-12T15:09:06.220Z,27.50
2018-04-12T15:11:33.810Z,27.50
2018-04-12T15:14:01.437Z,27.48
2018-04-12T15:16:29.021Z,27.51
2018-04-12T15:18:56.601Z,27.48
2018-04-12T15:21:24.222Z,27.47
2018-04-12T15:23:51.852Z,27.36
2018-04-12T15:26:19.431Z,27.36
2018-04-12T15:28:47.073Z,27.26
2018-04-12T15:31:14.677Z,27.24
2018-04-12T15:33:42.376Z,27.17
2018-04-12T15:36:09.997Z,27.17
2018-04-12T15:38:37.686Z,27.15
2018-04-12T15:41:05.282Z,27.01
2018-04-12T15:43:32.888Z,26.91
2018-04-12T15:46:00.472Z,26.91
2018-04-12T15:48:28.059Z,26.85
2018-04-12T15:50:55.682Z,26.83
2018-04-12T15:53:23.271Z,26.77
2018-04-12T15:55:50.876Z,26.75
2018-04-12T15:58:18.497Z,26.72
2018-04-12T16:00:46.102Z,26.58
2018-04-12T16:03:13.689Z,26.40
2018-04-12T16:05:42.054Z,26.35
2018-04-12T16:08:09.630Z,26.33
2018-04-12T16:10:37.378Z,26.30
2018-04-12T16:13:04.972Z,26.20
2018-04-12T16:15:32.546Z,26.05
2018-04-12T16:18:00.137Z,25.93
2018-04-12T16:20:27.748Z,25.86
2018-04-12T16:22:55.346Z,25.74
2018-04-12T16:25:22.927Z,25.58
2018-04-12T16:27:50.558Z,25.44
2018-04-12T16:30:18.152Z,25.27
2018-04-12T16:32:45.750Z,25.10
2018-04-12T16:35:13.360Z,24.88
2018-04-12T16:37:40.930Z,24.67
2018-04-12T16:40:08.517Z,24.41
2018-04-12T16:42:36.134Z,24.11
2018-04-12T16:45:03.759Z,23.90
2018-04-12T16:47:31.358Z,23.69
2018-04-12T16:49:58.999Z,23.52
2018-04-12T16:52:26.902Z,23.33
2018-04-12T16:54:54.521Z,23.13
2018-04-12T16:57:22.133Z,22.95
2018-04-12T16:59:49.753Z,22.71
2018-04-12T17:02:17.372Z,22.61
2018-04-12T17:04:44.984Z,22.53
2018-04-12T17:07:12.677Z,22.46
2018-04-12T17:09:40.317Z,22.32
2018-04-12T17:12:07.965Z,22.11
2018-04-12T17:14:35.602Z,21.89
2018-04-12T17:17:03.239Z,21.72
2018-04-12T17:19:30.903Z,21.51
2018-04-12T17:21:58.570Z,21.30
2018-04-12T17:24:26.231Z,21.19
2018-04-12T17:26:54.148Z,20.94
2018-04-12T17:29:21.843Z,20.81
2018-04-12T17:31:49.461Z,20.72
2018-04-12T17:34:17.094Z,20.58
2018-04-12T17:36:44.695Z,20.59
2018-04-12T17:39:12.290Z,20.55
2018-04-12T17:41:39.926Z,20.34
2018-04-12T17:44:07.549Z,20.23
2018-04-12T17:46:35.148Z,20.18
2018-04-12T17:49:02.791Z,20.05
2018-04-12T17:51:30.396Z,20.10
2018-04-12T17:53:57.991Z,20.09
2018-04-12T17:56:25.625Z,20.36
2018-04-12T17:58:53.272Z,20.60
2018-04-12T18:01:20.869Z,20.78
2018-04-12T18:03:48.526Z,20.98
2018-04-12T18:06:16.125Z,20.99
2018-04-12T18:08:43.721Z,20.93
2018-04-12T18:11:11.356Z,20.75
2018-04-12T18:13:38.943Z,20.72
2018-04-12T18:16:06.536Z,20.46
2018-04-12T18:18:34.149Z,20.33
2018-04-12T18:21:01.736Z,20.37
2018-04-12T18:23:29.312Z,20.25
2018-04-12T18:25:56.943Z,20.29
2018-04-12T18:28:24.529Z,20.30
2018-04-12T18:30:52.117Z,20.57
2018-04-12T18:33:19.734Z,20.72
2018-04-12T18:35:47.330Z,20.74
2018-04-12T18:38:14.932Z,20.81
2018-04-12T18:40:42.639Z,20.91
2018-04-12T18:43:10.274Z,21.04
2018-04-12T18:45:37.848Z,20.98
2018-04-12T18:48:05.460Z,20.91
2018-04-12T18:50:33.036Z,20.78
2018-04-12T18:53:00.615Z,20.70
2018-04-12T18:55:28.280Z,20.63
2018-04-12T18:57:56.044Z,20.31
2018-04-12T19:00:23.623Z,20.06
2018-04-12T19:02:51.230Z,19.96
2018-04-12T19:05:18.802Z,19.83
2018-04-12T19:07:46.404Z,19.77
2018-04-12T19:10:14.019Z,19.72
2018-04-12T19:12:41.615Z,19.71
2018-04-12T19:15:09.195Z,19.55
2018-04-12T19:17:36.836Z,19.51
2018-04-12T19:20:04.414Z,19.53
2018-04-12T19:22:32.028Z,19.48
2018-04-12T19:24:59.650Z,19.47
2018-04-12T19:27:27.296Z,19.18
2018-04-12T19:29:54.871Z,19.01
2018-04-12T19:32:22.471Z,18.79
2018-04-12T19:34:50.066Z,18.71
2018-04-12T19:37:17.694Z,18.78
2018-04-12T19:39:45.296Z,18.72
2018-04-12T19:42:18.808Z,19.02
2018-04-12T19:44:46.478Z,18.79
2018-04-12T19:47:14.064Z,18.64
2018-04-12T19:49:41.656Z,18.53
2018-04-12T19:52:09.325Z,18.66
2018-04-12T19:54:36.900Z,18.86
2018-04-12T19:57:04.477Z,18.81
2018-04-12T19:59:32.102Z,18.71
2018-04-12T20:01:59.686Z,18.72
2018-04-12T20:04:27.328Z,18.56
2018-04-12T20:06:54.936Z,18.45
2018-04-12T20:09:22.553Z,18.62
2018-04-12T20:11:50.177Z,18.47
2018-04-12T20:14:17.802Z,18.33
2018-04-12T20:16:45.390Z,18.30
2018-04-12T20:19:12.968Z,18.19
2018-04-12T20:21:40.576Z,18.17
2018-04-12T20:24:08.156Z,18.26
2018-04-12T20:26:35.733Z,18.70
2018-04-12T20:29:03.347Z,18.81
2018-04-12T20:31:30.933Z,18.85
2018-04-12T20:33:58.525Z,19.08
2018-04-12T20:36:26.219Z,19.33
2018-04-12T20:38:53.806Z,19.65
2018-04-12T20:41:21.450Z,19.95
2018-04-12T20:43:49.089Z,19.98
2018-04-12T20:46:16.681Z,19.96
2018-04-12T20:48:44.399Z,20.06
2018-04-12T20:51:12.102Z,20.20
2018-04-12T20:53:39.698Z,20.17
2018-04-12T20:56:07.305Z,20.17
2018-04-12T20:58:34.922Z,20.15
2018-04-12T21:01:02.577Z,20.22
2018-04-12T21:03:30.184Z,20.26
2018-04-12T21:05:57.817Z,20.33
2018-04-12T21:08:25.428Z,20.34
2018-04-12T21:10:53.090Z,20.36
2018-04-12T21:13:20.716Z,20.30
2018-04-12T21:15:48.311Z,20.27
2018-04-12T21:18:15.906Z,20.14
2018-04-12T21:20:43.543Z,20.12
2018-04-12T21:23:11.124Z,20.03
2018-04-12T21:25:38.719Z,20.24
2018-04-12T21:28:06.341Z,20.27
2018-04-12T21:30:33.928Z,20.25
2018-04-12T21:33:01.513Z,20.30
2018-04-12T21:35:29.170Z,20.32
2018-04-12T21:37:56.762Z,20.42
2018-04-12T21:40:24.362Z,20.35
2018-04-12T21:42:52.035Z,20.16
2018-04-12T21:45:19.620Z,19.91
2018-04-12T21:47:47.198Z,19.95
2018-04-12T21:50:14.819Z,19.93
2018-04-12T21:52:42.394Z,19.55
2018-04-12T21:55:09.983Z,19.14
2018-04-12T21:57:37.609Z,18.44
2018-04-12T22:00:05.256Z,18.22
2018-04-12T22:02:32.844Z,18.10
2018-04-12T22:05:00.470Z,17.98
2018-04-12T22:07:28.086Z,17.67
2018-04-12T22:09:55.674Z,17.66
2018-04-12T22:12:23.328Z,17.80
2018-04-12T22:14:50.905Z,17.89
2018-04-12T22:17:18.531Z,17.73
2018-04-12T22:19:46.188Z,17.43
2018-04-12T22:22:13.941Z,17.26
2018-04-12T22:24:41.525Z,17.17
2018-04-12T22:27:09.177Z,17.01
2018-04-12T22:29:36.940Z,16.89
2018-04-12T22:32:04.601Z,16.78
2018-04-12T22:34:32.233Z,16.54
2018-04-12T22:36:59.863Z,16.37
2018-04-12T22:39:27.505Z,16.25
2018-04-12T22:41:55.134Z,16.10
2018-04-12T22:44:22.736Z,15.99
2018-04-12T22:46:50.321Z,15.85
2018-04-12T22:49:17.942Z,15.79
2018-04-12T22:51:45.905Z,15.84
2018-04-12T22:54:13.499Z,15.72
2018-04-12T22:56:41.408Z,15.59
2018-04-12T22:59:09.276Z,15.53
2018-04-12T23:01:36.897Z,15.53
2018-04-12T23:04:04.536Z,15.43
2018-04-12T23:06:32.234Z,15.36
2018-04-12T23:08:59.797Z,15.30
2018-04-12T23:11:27.419Z,15.27
2018-04-12T23:13:55.017Z,15.29
2018-04-12T23:16:22.720Z,15.27
2018-04-12T23:18:50.351Z,15.18
2018-04-12T23:21:18.055Z,15.08
2018-04-12T23:23:45.719Z,14.99
2018-04-12T23:26:13.380Z,14.93
2018-04-12T23:28:40.972Z,14.84
2018-04-12T23:31:08.693Z,14.67
2018-04-12T23:33:36.367Z,14.63
2018-04-12T23:36:04.029Z,14.51
2018-04-12T23:38:31.772Z,14.53
2018-04-12T23:40:59.384Z,14.60
2018-04-12T23:43:26.981Z,14.58
2018-04-12T23:45:54.573Z,14.41
2018-04-12T23:48:22.545Z,14.29
2018-04-12T23:50:50.138Z,14.27
2018-04-12T23:53:17.870Z,14.20
2018-04-12T23:55:45.524Z,14.22
2018-04-12T23:58:13.157Z,14.20
